createdAt,value
2023-03-29T00:01:35.547Z,98649.81
2023-03-29T00:04:04.528Z,98644.38
2023-03-29T00:06:31.065Z,98642.53
2023-03-29T00:08:57.367Z,98648.47
2023-03-29T00:11:23.786Z,98644.69
2023-03-29T00:13:50.282Z,98653.09
2023-03-29T00:16:16.927Z,98646.47
2023-03-29T00:18:43.973Z,98646.31
2023-03-29T00:21:10.932Z,98647.66
2023-03-29T00:23:37.307Z,98638.69
2023-03-29T00:26:05.316Z,98629.94
2023-03-29T00:28:33.568Z,98635.53
2023-03-29T00:31:05.262Z,98624.63
2023-03-29T00:33:31.896Z,98623.97
2023-03-29T00:35:58.301Z,98614.91
2023-03-29T00:38:24.656Z,98616.25
2023-03-29T00:40:50.984Z,98606.03
2023-03-29T00:43:17.414Z,98601.72
2023-03-29T00:45:43.725Z,98596.63
2023-03-29T00:48:17.200Z,98603.22
2023-03-29T00:50:48.623Z,98595.13
2023-03-29T00:53:27.361Z,98594.78
2023-03-29T00:56:05.450Z,98593.78
2023-03-29T00:58:37.206Z,98593.78
2023-03-29T01:01:07.693Z,98597.91
2023-03-29T01:03:42.211Z,98582.56
2023-03-29T01:06:10.398Z,98579.59
2023-03-29T01:08:52.816Z,98567.19
2023-03-29T01:11:24.762Z,98566.22
2023-03-29T01:14:02.892Z,98564.22
2023-03-29T01:16:31.494Z,98554.81
2023-03-29T01:18:57.901Z,98547.06
2023-03-29T01:21:42.994Z,98549.53
2023-03-29T01:24:51.571Z,98534.34
2023-03-29T01:27:50.279Z,98532.03
2023-03-29T01:30:22.805Z,98531.03
2023-03-29T01:32:57.245Z,98522.09
2023-03-29T01:35:46.689Z,98520.47
2023-03-29T01:38:18.730Z,98528.03
2023-03-29T01:40:45.152Z,98526.22
2023-03-29T01:43:21.811Z,98510.84
2023-03-29T01:45:58.461Z,98523.06
2023-03-29T01:48:30.666Z,98519.75
2023-03-29T01:51:16.011Z,98509.53
2023-03-29T01:53:49.482Z,98515.53
2023-03-29T01:56:26.328Z,98508.06
2023-03-29T01:58:57.950Z,98508.38
2023-03-29T02:01:27.999Z,98510.66
2023-03-29T02:03:59.126Z,98506.69
2023-03-29T02:06:27.836Z,98509.97
2023-03-29T02:08:54.792Z,98504.69
2023-03-29T02:11:24.202Z,98504.69
2023-03-29T02:13:50.504Z,98503.84
2023-03-29T02:16:17.371Z,98497.09
2023-03-29T02:18:46.104Z,98500.56
2023-03-29T02:21:19.654Z,98497.44
2023-03-29T02:23:46.728Z,98501.25
2023-03-29T02:26:13.737Z,98495.97
2023-03-29T02:28:41.729Z,98487.41
2023-03-29T02:31:16.343Z,98492.22
2023-03-29T02:33:56.921Z,98498.50
2023-03-29T02:36:29.518Z,98501.31
2023-03-29T02:38:59.040Z,98497.03
2023-03-29T02:41:26.604Z,98504.25
2023-03-29T02:43:55.485Z,98501.91
2023-03-29T02:46:22.080Z,98489.22
2023-03-29T02:48:51.027Z,98481.47
2023-03-29T02:51:24.347Z,98471.53
2023-03-29T02:54:01.725Z,98463.97
2023-03-29T02:56:28.135Z,98467.31
2023-03-29T02:58:54.500Z,98467.31
2023-03-29T03:01:20.945Z,98459.38
2023-03-29T03:03:47.695Z,98464.34
2023-03-29T03:06:14.014Z,98461.22
2023-03-29T03:08:40.406Z,98450.19
2023-03-29T03:11:06.708Z,98445.41
2023-03-29T03:13:32.998Z,98446.75
2023-03-29T03:15:59.413Z,98443.47
2023-03-29T03:18:25.757Z,98441.97
2023-03-29T03:20:59.410Z,98445.59
2023-03-29T03:23:26.013Z,98436.50
2023-03-29T03:25:52.658Z,98433.88
2023-03-29T03:28:20.024Z,98431.56
2023-03-29T03:30:46.308Z,98433.75
2023-03-29T03:33:12.600Z,98434.72
2023-03-29T03:35:39.185Z,98438.03
2023-03-29T03:38:05.541Z,98430.94
2023-03-29T03:40:32.225Z,98426.47
2023-03-29T03:42:58.514Z,98423.66
2023-03-29T03:45:24.838Z,98427.13
2023-03-29T03:47:51.760Z,98429.25
2023-03-29T03:50:18.248Z,98417.19
2023-03-29T03:52:44.702Z,98419.66
2023-03-29T03:55:11.047Z,98415.38
2023-03-29T03:57:37.449Z,98410.56
2023-03-29T04:00:05.589Z,98405.91
2023-03-29T04:02:31.937Z,98399.81
2023-03-29T04:04:58.288Z,98404.28
2023-03-29T04:07:24.613Z,98396.34
2023-03-29T04:09:50.926Z,98400.97
2023-03-29T04:12:17.228Z,98396.16
2023-03-29T04:14:43.521Z,98406.56
2023-03-29T04:17:09.789Z,98400.63
2023-03-29T04:19:36.117Z,98403.63
2023-03-29T04:22:02.393Z,98406.63
2023-03-29T04:24:28.790Z,98395.53
2023-03-29T04:26:55.068Z,98391.88
2023-03-29T04:29:21.369Z,98397.16
2023-03-29T04:31:47.783Z,98402.91
2023-03-29T04:34:14.132Z,98399.28
2023-03-29T04:36:40.449Z,98395.16
2023-03-29T04:39:06.860Z,98391.53
2023-03-29T04:41:33.930Z,98379.97
2023-03-29T04:44:00.488Z,98385.72
2023-03-29T04:46:26.985Z,98385.25
2023-03-29T04:48:53.610Z,98384.44
2023-03-29T04:51:20.262Z,98385.06
2023-03-29T04:53:46.561Z,98384.25
2023-03-29T04:56:13.016Z,98378.78
2023-03-29T04:58:39.307Z,98381.13
2023-03-29T05:01:05.878Z,98374.56
2023-03-29T05:03:32.367Z,98383.84
2023-03-29T05:06:10.004Z,98380.56
2023-03-29T05:08:37.595Z,98378.09
2023-03-29T05:11:04.192Z,98366.53
2023-03-29T05:13:30.801Z,98375.28
2023-03-29T05:15:57.238Z,98371.34
2023-03-29T05:18:23.592Z,98366.13
2023-03-29T05:20:51.492Z,98362.38
2023-03-29T05:23:17.808Z,98363.00
2023-03-29T05:25:44.098Z,98361.38
2023-03-29T05:28:10.370Z,98362.69
2023-03-29T05:30:36.686Z,98358.91
2023-03-29T05:33:03.111Z,98356.28
2023-03-29T05:35:29.510Z,98353.97
2023-03-29T05:37:55.884Z,98359.44
2023-03-29T05:40:22.486Z,98359.97
2023-03-29T05:42:48.854Z,98351.22
2023-03-29T05:45:15.146Z,98350.41
2023-03-29T05:47:41.600Z,98350.41
2023-03-29T05:50:08.945Z,98349.06
2023-03-29T05:52:35.241Z,98351.53
2023-03-29T05:55:02.660Z,98341.25
2023-03-29T05:57:29.165Z,98339.41
2023-03-29T05:59:55.544Z,98345.47
2023-03-29T06:02:22.984Z,98340.59
2023-03-29T06:04:49.382Z,98346.97
2023-03-29T06:07:15.724Z,98342.75
2023-03-29T06:09:42.033Z,98342.41
2023-03-29T06:12:08.591Z,98346.81
2023-03-29T06:14:34.965Z,98338.16
2023-03-29T06:17:01.402Z,98349.88
2023-03-29T06:19:27.778Z,98349.44
2023-03-29T06:21:54.122Z,98350.38
2023-03-29T06:24:20.463Z,98358.78
2023-03-29T06:26:46.857Z,98357.88
2023-03-29T06:29:13.181Z,98361.09
2023-03-29T06:31:39.681Z,98369.47
2023-03-29T06:34:06.019Z,98360.22
2023-03-29T06:36:32.312Z,98364.69
2023-03-29T06:38:58.688Z,98362.50
2023-03-29T06:41:25.010Z,98359.94
2023-03-29T06:43:51.405Z,98360.69
2023-03-29T06:46:17.714Z,98361.06
2023-03-29T06:48:44.168Z,98361.22
2023-03-29T06:51:10.459Z,98358.72
2023-03-29T06:53:36.757Z,98356.63
2023-03-29T06:56:03.845Z,98355.69
2023-03-29T06:58:30.161Z,98357.88
2023-03-29T07:01:00.807Z,98363.25
2023-03-29T07:03:27.585Z,98368.00
2023-03-29T07:05:54.004Z,98369.56
2023-03-29T07:08:20.518Z,98359.59
2023-03-29T07:10:50.629Z,98362.69
2023-03-29T07:13:16.899Z,98364.84
2023-03-29T07:15:43.850Z,98361.31
2023-03-29T07:18:11.012Z,98359.84
2023-03-29T07:20:37.343Z,98362.59
2023-03-29T07:23:04.024Z,98366.91
2023-03-29T07:25:30.354Z,98361.84
2023-03-29T07:27:56.931Z,98363.81
2023-03-29T07:30:26.224Z,98366.06
2023-03-29T07:32:52.654Z,98370.59
2023-03-29T07:35:19.542Z,98371.88
2023-03-29T07:37:48.067Z,98368.75
2023-03-29T07:40:17.109Z,98362.94
2023-03-29T07:42:45.047Z,98365.47
2023-03-29T07:45:12.934Z,98358.44
2023-03-29T07:47:43.304Z,98369.53
2023-03-29T07:50:10.134Z,98370.03
2023-03-29T07:52:37.753Z,98372.16
2023-03-29T07:55:08.579Z,98369.88
2023-03-29T07:57:35.856Z,98375.03
2023-03-29T08:00:02.503Z,98371.22
2023-03-29T08:02:28.910Z,98354.94
2023-03-29T08:04:55.315Z,98360.06
2023-03-29T08:07:21.662Z,98366.41
2023-03-29T08:09:47.949Z,98359.91
2023-03-29T08:12:14.283Z,98368.28
2023-03-29T08:14:40.666Z,98374.47
2023-03-29T08:17:07.118Z,98375.06
2023-03-29T08:19:33.582Z,98369.34
2023-03-29T08:22:00.659Z,98366.28
2023-03-29T08:24:27.064Z,98365.84
2023-03-29T08:26:53.360Z,98364.66
2023-03-29T08:29:19.770Z,98366.28
2023-03-29T08:31:46.074Z,98362.38
2023-03-29T08:34:13.731Z,98358.47
2023-03-29T08:36:40.165Z,98358.69
2023-03-29T08:39:06.471Z,98355.59
2023-03-29T08:41:38.834Z,98349.66
2023-03-29T08:44:22.257Z,98345.72
2023-03-29T08:47:12.622Z,98345.09
2023-03-29T08:49:42.119Z,98345.88
2023-03-29T08:52:21.055Z,98346.75
2023-03-29T08:54:52.954Z,98347.53
2023-03-29T08:57:24.562Z,98352.25
2023-03-29T08:59:53.453Z,98349.88
2023-03-29T09:02:33.433Z,98351.78
2023-03-29T09:05:18.072Z,98344.38
2023-03-29T09:07:44.415Z,98351.13
2023-03-29T09:10:16.713Z,98336.53
2023-03-29T09:13:19.166Z,98340.47
2023-03-29T09:16:04.647Z,98326.13
2023-03-29T09:18:51.701Z,98333.03
2023-03-29T09:21:30.440Z,98337.00
2023-03-29T09:24:07.006Z,98341.44
2023-03-29T09:26:41.715Z,98334.53
2023-03-29T09:29:27.270Z,98339.88
2023-03-29T09:31:55.619Z,98333.00
2023-03-29T09:34:31.679Z,98333.81
2023-03-29T09:37:07.942Z,98329.38
2023-03-29T09:39:34.283Z,98326.47
2023-03-29T09:42:06.326Z,98325.09
2023-03-29T09:44:40.459Z,98328.63
2023-03-29T09:47:29.844Z,98330.09
2023-03-29T09:50:02.487Z,98328.63
2023-03-29T09:52:28.869Z,98325.97
2023-03-29T09:54:55.181Z,98315.91
2023-03-29T09:57:21.538Z,98321.72
2023-03-29T09:59:50.687Z,98318.22
2023-03-29T10:02:19.242Z,98318.72
2023-03-29T10:04:45.568Z,98312.66
2023-03-29T10:07:19.723Z,98319.19
2023-03-29T10:09:48.673Z,98313.69
2023-03-29T10:12:16.190Z,98311.25
2023-03-29T10:14:46.120Z,98318.81
2023-03-29T10:17:24.639Z,98310.19
2023-03-29T10:20:04.519Z,98316.31
2023-03-29T10:22:36.257Z,98309.56
2023-03-29T10:25:03.201Z,98326.34
2023-03-29T10:27:32.552Z,98325.00
2023-03-29T10:30:00.999Z,98315.72
2023-03-29T10:32:38.021Z,98313.88
2023-03-29T10:35:16.273Z,98316.59
2023-03-29T10:37:44.811Z,98312.81
2023-03-29T10:40:33.330Z,98313.31
2023-03-29T10:43:01.750Z,98312.97
2023-03-29T10:45:34.678Z,98310.28
2023-03-29T10:48:03.639Z,98304.47
2023-03-29T10:50:35.838Z,98309.09
2023-03-29T10:53:03.288Z,98305.00
2023-03-29T10:55:37.115Z,98304.81
2023-03-29T10:58:31.508Z,98302.53
2023-03-29T11:00:58.152Z,98297.88
2023-03-29T11:03:42.954Z,98300.41
2023-03-29T11:06:56.078Z,98292.91
2023-03-29T11:09:40.345Z,98290.56
2023-03-29T11:12:26.868Z,98294.38
2023-03-29T11:15:11.629Z,98296.50
2023-03-29T11:17:53.355Z,98299.63
2023-03-29T11:20:28.712Z,98292.63
2023-03-29T11:23:27.542Z,98302.81
2023-03-29T11:26:23.777Z,98292.44
2023-03-29T11:29:06.370Z,98292.63
2023-03-29T11:31:32.870Z,98300.56
2023-03-29T11:34:20.674Z,98293.66
2023-03-29T11:36:53.585Z,98297.94
2023-03-29T11:39:30.360Z,98292.66
2023-03-29T11:42:06.157Z,98294.03
2023-03-29T11:44:35.339Z,98295.34
2023-03-29T11:47:12.710Z,98294.94
2023-03-29T11:50:17.641Z,98293.63
2023-03-29T11:52:51.166Z,98298.69
2023-03-29T11:55:25.447Z,98287.16
2023-03-29T11:57:55.833Z,98291.50
2023-03-29T12:00:38.065Z,98292.25
2023-03-29T12:03:07.335Z,98297.38
2023-03-29T12:05:45.528Z,98289.38
2023-03-29T12:08:18.650Z,98287.75
2023-03-29T12:11:12.869Z,98283.63
2023-03-29T12:14:01.696Z,98280.94
2023-03-29T12:16:35.107Z,98289.19
2023-03-29T12:19:13.360Z,98287.47
2023-03-29T12:21:41.320Z,98293.63
2023-03-29T12:24:12.500Z,98293.19
2023-03-29T12:27:20.213Z,98292.66
2023-03-29T12:30:20.399Z,98288.41
2023-03-29T12:32:58.316Z,98292.31
2023-03-29T12:35:49.410Z,98280.94
2023-03-29T12:38:20.928Z,98281.56
2023-03-29T12:40:53.996Z,98284.25
2023-03-29T12:43:30.329Z,98288.72
2023-03-29T12:46:08.765Z,98284.09
2023-03-29T12:48:38.884Z,98283.03
2023-03-29T12:51:11.779Z,98278.88
2023-03-29T12:53:42.097Z,98270.97
2023-03-29T12:56:17.761Z,98260.38
2023-03-29T12:58:53.047Z,98260.16
2023-03-29T13:02:11.822Z,98254.03
2023-03-29T13:04:50.308Z,98250.59
2023-03-29T13:07:22.505Z,98249.28
2023-03-29T13:09:51.849Z,98239.72
2023-03-29T13:12:25.684Z,98245.09
2023-03-29T13:15:07.821Z,98242.53
2023-03-29T13:17:36.641Z,98233.09
2023-03-29T13:20:32.002Z,98235.84
2023-03-29T13:23:30.481Z,98238.34
2023-03-29T13:26:20.800Z,98235.03
2023-03-29T13:29:14.365Z,98233.84
2023-03-29T13:31:49.752Z,98231.72
2023-03-29T13:34:37.090Z,98219.94
2023-03-29T13:37:22.763Z,98218.44
2023-03-29T13:39:54.604Z,98216.25
2023-03-29T13:42:32.983Z,98220.41
2023-03-29T13:45:29.745Z,98217.94
2023-03-29T13:48:28.116Z,98213.25
2023-03-29T13:50:57.316Z,98215.13
2023-03-29T13:53:32.507Z,98211.41
2023-03-29T13:55:59.606Z,98212.94
2023-03-29T13:58:47.706Z,98209.88
2023-03-29T14:01:27.287Z,98209.19
2023-03-29T14:03:55.333Z,98208.69
2023-03-29T14:06:26.558Z,98200.50
2023-03-29T14:08:54.107Z,98201.25
2023-03-29T14:11:29.485Z,98188.19
2023-03-29T14:13:58.541Z,98193.09
2023-03-29T14:16:39.814Z,98198.97
2023-03-29T14:19:15.325Z,98191.47
2023-03-29T14:21:43.588Z,98197.94
2023-03-29T14:24:20.480Z,98194.94
2023-03-29T14:26:47.755Z,98191.63
2023-03-29T14:29:14.516Z,98191.53
2023-03-29T14:31:42.277Z,98194.84
2023-03-29T14:34:17.182Z,98184.22
2023-03-29T14:36:45.580Z,98191.47
2023-03-29T14:39:23.193Z,98185.94
2023-03-29T14:41:53.878Z,98180.06
2023-03-29T14:44:21.978Z,98174.13
2023-03-29T14:46:48.375Z,98173.91
2023-03-29T14:49:20.481Z,98168.53
2023-03-29T14:51:47.938Z,98173.75
2023-03-29T14:54:24.885Z,98161.44
2023-03-29T14:56:52.002Z,98158.31
2023-03-29T14:59:37.727Z,98151.03
2023-03-29T15:02:04.985Z,98153.66
2023-03-29T15:04:35.153Z,98146.13
2023-03-29T15:07:05.896Z,98139.75
2023-03-29T15:09:34.379Z,98143.81
2023-03-29T15:12:02.523Z,98148.19
2023-03-29T15:14:32.460Z,98142.72
2023-03-29T15:17:09.566Z,98135.88
2023-03-29T15:19:36.258Z,98130.91
2023-03-29T15:22:07.644Z,98125.66
2023-03-29T15:24:34.036Z,98123.41
2023-03-29T15:27:10.933Z,98128.50
2023-03-29T15:29:40.165Z,98112.84
2023-03-29T15:32:06.595Z,98113.94
2023-03-29T15:34:33.539Z,98119.59
2023-03-29T15:37:01.473Z,98112.94
2023-03-29T15:39:29.048Z,98116.44
2023-03-29T15:41:56.933Z,98113.56
2023-03-29T15:44:27.981Z,98111.22
2023-03-29T15:46:55.226Z,98109.41
2023-03-29T15:49:21.636Z,98105.34
2023-03-29T15:51:47.958Z,98113.97
2023-03-29T15:54:14.373Z,98103.16
2023-03-29T15:56:48.756Z,98105.16
2023-03-29T15:59:15.392Z,98099.19
2023-03-29T16:01:42.015Z,98098.06
2023-03-29T16:04:14.628Z,98099.78
2023-03-29T16:06:42.642Z,98093.00
2023-03-29T16:09:09.259Z,98092.94
2023-03-29T16:11:35.714Z,98106.59
2023-03-29T16:14:02.193Z,98095.72
2023-03-29T16:16:28.697Z,98088.91
2023-03-29T16:18:55.019Z,98090.75
2023-03-29T16:21:22.167Z,98087.38
2023-03-29T16:23:48.512Z,98077.06
2023-03-29T16:26:16.713Z,98076.22
2023-03-29T16:28:43.499Z,98078.59
2023-03-29T16:31:11.649Z,98082.56
2023-03-29T16:33:38.699Z,98072.56
2023-03-29T16:36:05.615Z,98082.19
2023-03-29T16:38:32.070Z,98078.06
2023-03-29T16:40:58.402Z,98074.28
2023-03-29T16:43:24.729Z,98082.56
2023-03-29T16:45:51.076Z,98079.56
2023-03-29T16:48:19.039Z,98087.84
2023-03-29T16:50:46.322Z,98095.34
2023-03-29T16:53:12.565Z,98082.09
2023-03-29T16:55:38.875Z,98080.16
2023-03-29T16:58:05.171Z,98088.47
2023-03-29T17:00:31.958Z,98081.38
2023-03-29T17:02:58.361Z,98077.50
2023-03-29T17:05:24.681Z,98084.94
2023-03-29T17:07:50.990Z,98079.94
2023-03-29T17:10:17.285Z,98074.75
2023-03-29T17:12:43.647Z,98068.50
2023-03-29T17:15:10.405Z,98072.16
2023-03-29T17:17:37.100Z,98073.91
2023-03-29T17:20:05.990Z,98076.19
2023-03-29T17:22:32.292Z,98080.66
2023-03-29T17:24:58.636Z,98081.03
2023-03-29T17:27:25.014Z,98078.53
2023-03-29T17:29:51.329Z,98073.06
2023-03-29T17:32:17.687Z,98081.84
2023-03-29T17:34:44.155Z,98082.59
2023-03-29T17:37:10.437Z,98077.66
2023-03-29T17:39:36.765Z,98075.16
2023-03-29T17:42:04.412Z,98083.69
2023-03-29T17:44:30.843Z,98080.09
2023-03-29T17:46:57.252Z,98080.34
2023-03-29T17:49:23.616Z,98072.97
2023-03-29T17:51:50.192Z,98069.16
2023-03-29T17:54:16.649Z,98064.53
2023-03-29T17:56:43.027Z,98074.09
2023-03-29T17:59:09.398Z,98072.38
2023-03-29T18:01:38.548Z,98081.34
2023-03-29T18:04:05.612Z,98075.91
2023-03-29T18:06:32.005Z,98071.00
2023-03-29T18:08:58.355Z,98079.53
2023-03-29T18:11:24.736Z,98081.06
2023-03-29T18:13:52.160Z,98085.25
2023-03-29T18:16:22.046Z,98084.91
2023-03-29T18:18:48.676Z,98087.00
2023-03-29T18:21:16.966Z,98085.38
2023-03-29T18:23:47.937Z,98093.06
2023-03-29T18:26:16.117Z,98097.00
2023-03-29T18:28:44.990Z,98094.81
2023-03-29T18:31:11.278Z,98098.06
2023-03-29T18:33:37.622Z,98099.09
2023-03-29T18:36:07.726Z,98093.41
2023-03-29T18:38:35.793Z,98093.06
2023-03-29T18:41:03.869Z,98085.94
2023-03-29T18:43:31.906Z,98086.91
2023-03-29T18:45:58.467Z,98087.25
2023-03-29T18:48:25.329Z,98082.16
2023-03-29T18:50:52.001Z,98083.19
2023-03-29T18:53:18.888Z,98089.34
2023-03-29T18:55:45.727Z,98082.97
2023-03-29T18:58:13.707Z,98089.47
2023-03-29T19:00:41.355Z,98082.00
2023-03-29T19:03:08.755Z,98080.16
2023-03-29T19:05:39.575Z,98089.81
2023-03-29T19:08:06.926Z,98084.22
2023-03-29T19:10:37.094Z,98077.34
2023-03-29T19:13:03.782Z,98080.03
2023-03-29T19:15:31.070Z,98072.47
2023-03-29T19:17:57.331Z,98073.97
2023-03-29T19:20:23.872Z,98076.66
2023-03-29T19:22:50.183Z,98070.25
2023-03-29T19:25:16.558Z,98075.59
2023-03-29T19:27:42.914Z,98069.19
2023-03-29T19:30:09.819Z,98079.69
2023-03-29T19:32:36.155Z,98077.56
2023-03-29T19:35:02.516Z,98070.13
2023-03-29T19:37:28.865Z,98064.75
2023-03-29T19:39:55.156Z,98067.44
2023-03-29T19:42:21.530Z,98065.59
2023-03-29T19:44:47.843Z,98064.53
2023-03-29T19:47:14.168Z,98064.75
2023-03-29T19:49:40.740Z,98048.38
2023-03-29T19:52:07.254Z,98053.59
2023-03-29T19:54:33.718Z,98047.34
2023-03-29T19:57:00.078Z,98053.16
2023-03-29T19:59:26.821Z,98041.06
2023-03-29T20:01:53.868Z,98032.91
2023-03-29T20:04:21.695Z,98036.63
2023-03-29T20:06:48.610Z,98030.94
2023-03-29T20:09:15.260Z,98039.44
2023-03-29T20:11:42.484Z,98032.69
2023-03-29T20:14:08.795Z,98032.09
2023-03-29T20:16:35.285Z,98031.53
2023-03-29T20:19:02.556Z,98028.50
2023-03-29T20:21:29.465Z,98032.22
2023-03-29T20:23:56.000Z,98023.84
2023-03-29T20:26:22.602Z,98043.25
2023-03-29T20:28:49.070Z,98038.16
2023-03-29T20:31:15.516Z,98027.91
2023-03-29T20:33:41.874Z,98028.38
2023-03-29T20:36:08.475Z,98016.75
2023-03-29T20:38:35.096Z,98023.47
2023-03-29T20:41:02.556Z,98014.63
2023-03-29T20:43:29.417Z,98010.91
2023-03-29T20:45:55.746Z,98009.88
2023-03-29T20:48:23.319Z,98000.00
2023-03-29T20:50:50.429Z,98033.94
2023-03-29T20:53:16.829Z,98024.06
2023-03-29T20:55:43.195Z,98023.25
2023-03-29T20:58:09.804Z,98024.88
2023-03-29T21:00:36.117Z,98009.06
2023-03-29T21:03:02.499Z,98005.81
2023-03-29T21:05:31.830Z,97997.44
2023-03-29T21:07:58.513Z,97991.16
2023-03-29T21:10:26.572Z,97987.56
2023-03-29T21:12:52.972Z,97983.56
2023-03-29T21:15:19.272Z,97980.09
2023-03-29T21:17:46.074Z,97984.38
2023-03-29T21:20:13.672Z,97986.59
2023-03-29T21:22:41.475Z,97976.47
2023-03-29T21:25:12.680Z,97983.91
2023-03-29T21:27:38.963Z,97965.66
2023-03-29T21:30:06.408Z,97973.94
2023-03-29T21:32:32.871Z,97970.09
2023-03-29T21:34:59.282Z,97966.84
2023-03-29T21:37:26.011Z,97958.81
2023-03-29T21:39:52.317Z,97962.19
2023-03-29T21:42:18.720Z,97962.03
2023-03-29T21:44:45.132Z,97956.94
2023-03-29T21:47:11.464Z,97956.53
2023-03-29T21:49:37.938Z,97955.16
2023-03-29T21:52:04.356Z,97958.88
2023-03-29T21:54:30.660Z,97960.97
2023-03-29T21:56:56.978Z,97951.53
2023-03-29T21:59:23.421Z,97943.19
2023-03-29T22:01:49.754Z,97949.78
2023-03-29T22:04:25.792Z,97943.25
2023-03-29T22:06:59.898Z,97936.75
2023-03-29T22:09:26.195Z,97938.59
2023-03-29T22:11:53.021Z,97922.00
2023-03-29T22:14:19.497Z,97921.66
2023-03-29T22:16:46.055Z,97907.94
2023-03-29T22:19:12.452Z,97913.75
2023-03-29T22:21:38.751Z,97919.91
2023-03-29T22:24:05.362Z,97917.22
2023-03-29T22:26:32.907Z,97914.31
2023-03-29T22:29:00.499Z,97914.09
2023-03-29T22:31:28.485Z,97908.50
2023-03-29T22:33:55.558Z,97911.19
2023-03-29T22:36:28.266Z,97909.34
2023-03-29T22:38:55.522Z,97913.28
2023-03-29T22:41:24.026Z,97901.19
2023-03-29T22:43:55.583Z,97897.94
2023-03-29T22:46:22.762Z,97903.53
2023-03-29T22:48:49.475Z,97905.38
2023-03-29T22:51:16.434Z,97900.84
2023-03-29T22:53:43.868Z,97900.38
2023-03-29T22:56:10.306Z,97896.53
2023-03-29T22:58:37.435Z,97888.53
2023-03-29T23:01:05.025Z,97882.16
2023-03-29T23:03:32.122Z,97885.63
2023-03-29T23:06:00.051Z,97881.09
2023-03-29T23:08:26.679Z,97881.69
2023-03-29T23:10:53.341Z,97875.31
2023-03-29T23:13:20.038Z,97881.22
2023-03-29T23:15:49.265Z,97874.84
2023-03-29T23:18:17.839Z,97874.84
2023-03-29T23:20:44.777Z,97869.72
2023-03-29T23:23:11.375Z,97864.16
2023-03-29T23:25:37.850Z,97866.81
2023-03-29T23:28:04.840Z,97860.66
2023-03-29T23:30:31.378Z,97863.34
2023-03-29T23:32:58.267Z,97858.00
2023-03-29T23:35:25.020Z,97855.78
2023-03-29T23:37:51.729Z,97853.13
2023-03-29T23:40:18.577Z,97848.25
2023-03-29T23:42:46.393Z,97846.84
2023-03-29T23:45:15.861Z,97846.84
2023-03-29T23:47:43.191Z,97846.03
2023-03-29T23:50:10.377Z,97842.41
2023-03-29T23:52:37.115Z,97841.25
2023-03-29T23:55:04.295Z,97837.75
2023-03-29T23:57:31.102Z,97836.38
2023-03-29T23:59:57.669Z,97835.31
